sensor_id;sensor_type;location;lat;lon;timestamp;P1;durP1;ratioP1;P2;durP2;ratioP2
20739;SDS011;10530;49.968;19.844;2023-10-13T00:04:42;9.90;;;3.73;;
20739;SDS011;10530;49.968;19.844;2023-10-13T00:09:48;10.73;;;3.15;;
20739;SDS011;10530;49.968;19.844;2023-10-13T00:14:50;8.48;;;3.10;;
20739;SDS011;10530;49.968;19.844;2023-10-13T00:19:53;6.13;;;2.90;;
20739;SDS011;10530;49.968;19.844;2023-10-13T00:24:56;10.80;;;3.63;;
20739;SDS011;10530;49.968;19.844;2023-10-13T00:30:06;9.77;;;3.63;;
20739;SDS011;10530;49.968;19.844;2023-10-13T00:35:28;8.88;;;3.65;;
20739;SDS011;10530;49.968;19.844;2023-10-13T00:40:37;8.70;;;3.22;;
20739;SDS011;10530;49.968;19.844;2023-10-13T00:45:42;10.40;;;3.30;;
20739;SDS011;10530;49.968;19.844;2023-10-13T00:50:46;9.30;;;3.17;;
20739;SDS011;10530;49.968;19.844;2023-10-13T00:55:49;7.33;;;2.93;;
20739;SDS011;10530;49.968;19.844;2023-10-13T01:00:52;10.23;;;3.10;;
20739;SDS011;10530;49.968;19.844;2023-10-13T01:05:59;9.27;;;2.90;;
20739;SDS011;10530;49.968;19.844;2023-10-13T01:11:01;8.30;;;3.25;;
20739;SDS011;10530;49.968;19.844;2023-10-13T01:16:04;10.00;;;3.40;;
20739;SDS011;10530;49.968;19.844;2023-10-13T01:21:09;12.47;;;3.60;;
20739;SDS011;10530;49.968;19.844;2023-10-13T01:26:12;9.70;;;3.70;;
20739;SDS011;10530;49.968;19.844;2023-10-13T01:31:18;7.00;;;3.05;;
20739;SDS011;10530;49.968;19.844;2023-10-13T01:36:29;9.98;;;3.35;;
20739;SDS011;10530;49.968;19.844;2023-10-13T01:41:38;8.70;;;3.03;;
20739;SDS011;10530;49.968;19.844;2023-10-13T01:46:41;7.47;;;2.93;;
20739;SDS011;10530;49.968;19.844;2023-10-13T01:51:46;11.35;;;3.25;;
20739;SDS011;10530;49.968;19.844;2023-10-13T01:56:50;7.78;;;3.00;;
20739;SDS011;10530;49.968;19.844;2023-10-13T02:01:53;8.27;;;3.00;;
20739;SDS011;10530;49.968;19.844;2023-10-13T02:07:00;8.10;;;3.30;;
20739;SDS011;10530;49.968;19.844;2023-10-13T02:12:03;8.97;;;3.20;;
20739;SDS011;10530;49.968;19.844;2023-10-13T02:17:05;10.50;;;2.95;;
20739;SDS011;10530;49.968;19.844;2023-10-13T02:22:15;8.00;;;2.88;;
20739;SDS011;10530;49.968;19.844;2023-10-13T02:27:35;9.80;;;3.63;;
20739;SDS011;10530;49.968;19.844;2023-10-13T02:32:43;9.98;;;3.30;;
20739;SDS011;10530;49.968;19.844;2023-10-13T02:37:46;8.77;;;3.63;;
20739;SDS011;10530;49.968;19.844;2023-10-13T02:42:56;7.28;;;2.92;;
20739;SDS011;10530;49.968;19.844;2023-10-13T02:47:59;10.93;;;3.35;;
20739;SDS011;10530;49.968;19.844;2023-10-13T02:53:19;8.48;;;3.28;;
20739;SDS011;10530;49.968;19.844;2023-10-13T02:58:22;9.00;;;3.45;;
20739;SDS011;10530;49.968;19.844;2023-10-13T03:03:25;8.73;;;3.37;;
20739;SDS011;10530;49.968;19.844;2023-10-13T03:08:29;8.40;;;3.22;;
20739;SDS011;10530;49.968;19.844;2023-10-13T03:13:33;10.13;;;3.25;;
20739;SDS011;10530;49.968;19.844;2023-10-13T03:18:36;9.07;;;3.30;;
20739;SDS011;10530;49.968;19.844;2023-10-13T03:23:40;8.85;;;3.35;;
20739;SDS011;10530;49.968;19.844;2023-10-13T03:28:47;13.03;;;4.23;;
20739;SDS011;10530;49.968;19.844;2023-10-13T03:33:54;9.35;;;3.63;;
20739;SDS011;10530;49.968;19.844;2023-10-13T03:39:01;10.00;;;3.38;;
20739;SDS011;10530;49.968;19.844;2023-10-13T03:44:09;9.55;;;3.97;;
20739;SDS011;10530;49.968;19.844;2023-10-13T03:49:19;11.10;;;4.18;;
20739;SDS011;10530;49.968;19.844;2023-10-13T03:54:27;10.93;;;4.53;;
20739;SDS011;10530;49.968;19.844;2023-10-13T03:59:32;9.52;;;3.83;;
20739;SDS011;10530;49.968;19.844;2023-10-13T04:04:37;16.45;;;4.72;;
20739;SDS011;10530;49.968;19.844;2023-10-13T04:09:51;9.63;;;4.10;;
20739;SDS011;10530;49.968;19.844;2023-10-13T04:15:14;10.23;;;4.60;;
20739;SDS011;10530;49.968;19.844;2023-10-13T04:20:20;8.70;;;4.20;;
20739;SDS011;10530;49.968;19.844;2023-10-13T04:25:35;11.52;;;4.45;;
20739;SDS011;10530;49.968;19.844;2023-10-13T04:30:46;15.93;;;4.43;;
20739;SDS011;10530;49.968;19.844;2023-10-13T04:36:21;9.63;;;4.50;;
20739;SDS011;10530;49.968;19.844;2023-10-13T04:41:30;9.30;;;4.05;;
20739;SDS011;10530;49.968;19.844;2023-10-13T04:46:47;12.83;;;4.70;;
20739;SDS011;10530;49.968;19.844;2023-10-13T04:51:50;8.38;;;3.83;;
20739;SDS011;10530;49.968;19.844;2023-10-13T04:57:01;9.55;;;4.40;;
20739;SDS011;10530;49.968;19.844;2023-10-13T05:02:21;13.48;;;4.03;;
20739;SDS011;10530;49.968;19.844;2023-10-13T05:07:42;9.02;;;3.95;;
20739;SDS011;10530;49.968;19.844;2023-10-13T05:13:04;8.30;;;3.70;;
20739;SDS011;10530;49.968;19.844;2023-10-13T05:18:25;9.40;;;4.05;;
20739;SDS011;10530;49.968;19.844;2023-10-13T05:23:47;11.10;;;4.15;;
20739;SDS011;10530;49.968;19.844;2023-10-13T05:29:08;10.32;;;3.63;;
20739;SDS011;10530;49.968;19.844;2023-10-13T05:34:30;8.23;;;3.58;;
20739;SDS011;10530;49.968;19.844;2023-10-13T05:39:51;8.23;;;3.60;;
20739;SDS011;10530;49.968;19.844;2023-10-13T05:45:13;15.18;;;4.13;;
20739;SDS011;10530;49.968;19.844;2023-10-13T05:50:27;8.70;;;3.42;;
20739;SDS011;10530;49.968;19.844;2023-10-13T05:55:30;9.77;;;3.47;;
20739;SDS011;10530;49.968;19.844;2023-10-13T06:00:53;7.75;;;3.70;;
20739;SDS011;10530;49.968;19.844;2023-10-13T06:06:14;9.60;;;3.83;;
20739;SDS011;10530;49.968;19.844;2023-10-13T06:11:36;12.90;;;4.25;;
20739;SDS011;10530;49.968;19.844;2023-10-13T06:16:57;9.38;;;4.03;;
20739;SDS011;10530;49.968;19.844;2023-10-13T06:22:19;8.77;;;3.40;;
20739;SDS011;10530;49.968;19.844;2023-10-13T06:27:40;10.93;;;4.28;;
20739;SDS011;10530;49.968;19.844;2023-10-13T06:33:02;10.10;;;3.40;;
20739;SDS011;10530;49.968;19.844;2023-10-13T06:38:06;10.23;;;4.20;;
20739;SDS011;10530;49.968;19.844;2023-10-13T06:43:22;12.30;;;3.90;;
20739;SDS011;10530;49.968;19.844;2023-10-13T06:48:29;9.02;;;3.65;;
20739;SDS011;10530;49.968;19.844;2023-10-13T06:53:38;11.63;;;3.88;;
20739;SDS011;10530;49.968;19.844;2023-10-13T06:58:40;17.67;;;4.13;;
20739;SDS011;10530;49.968;19.844;2023-10-13T07:03:45;15.25;;;4.68;;
20739;SDS011;10530;49.968;19.844;2023-10-13T07:08:55;18.00;;;4.57;;
20739;SDS011;10530;49.968;19.844;2023-10-13T07:14:00;14.38;;;4.32;;
20739;SDS011;10530;49.968;19.844;2023-10-13T07:19:13;16.33;;;4.47;;
20739;SDS011;10530;49.968;19.844;2023-10-13T07:24:23;12.70;;;4.73;;
20739;SDS011;10530;49.968;19.844;2023-10-13T07:29:26;16.45;;;4.07;;
20739;SDS011;10530;49.968;19.844;2023-10-13T07:34:29;12.40;;;4.30;;
20739;SDS011;10530;49.968;19.844;2023-10-13T07:39:35;10.13;;;3.95;;
20739;SDS011;10530;49.968;19.844;2023-10-13T07:44:41;9.80;;;3.58;;
20739;SDS011;10530;49.968;19.844;2023-10-13T07:49:49;8.20;;;3.60;;
20739;SDS011;10530;49.968;19.844;2023-10-13T07:54:53;9.10;;;4.00;;
20739;SDS011;10530;49.968;19.844;2023-10-13T08:00:02;10.80;;;3.67;;
20739;SDS011;10530;49.968;19.844;2023-10-13T08:05:12;9.57;;;3.63;;
20739;SDS011;10530;49.968;19.844;2023-10-13T08:10:19;10.90;;;3.70;;
20739;SDS011;10530;49.968;19.844;2023-10-13T08:15:27;6.90;;;2.83;;
20739;SDS011;10530;49.968;19.844;2023-10-13T08:20:39;9.93;;;3.58;;
20739;SDS011;10530;49.968;19.844;2023-10-13T08:25:42;9.00;;;3.20;;
20739;SDS011;10530;49.968;19.844;2023-10-13T08:31:04;9.07;;;3.38;;
20739;SDS011;10530;49.968;19.844;2023-10-13T08:36:24;8.18;;;3.13;;
20739;SDS011;10530;49.968;19.844;2023-10-13T08:41:30;6.67;;;2.93;;
20739;SDS011;10530;49.968;19.844;2023-10-13T08:46:34;7.20;;;3.60;;
20739;SDS011;10530;49.968;19.844;2023-10-13T08:52:01;6.75;;;3.20;;
20739;SDS011;10530;49.968;19.844;2023-10-13T08:57:29;6.25;;;3.20;;
20739;SDS011;10530;49.968;19.844;2023-10-13T09:02:35;8.30;;;3.53;;
20739;SDS011;10530;49.968;19.844;2023-10-13T09:07:57;9.93;;;3.80;;
20739;SDS011;10530;49.968;19.844;2023-10-13T09:13:11;9.02;;;3.55;;
20739;SDS011;10530;49.968;19.844;2023-10-13T09:18:23;8.05;;;3.20;;
20739;SDS011;10530;49.968;19.844;2023-10-13T09:23:48;6.88;;;3.40;;
20739;SDS011;10530;49.968;19.844;2023-10-13T09:28:51;8.27;;;3.70;;
20739;SDS011;10530;49.968;19.844;2023-10-13T09:33:55;6.57;;;3.27;;
20739;SDS011;10530;49.968;19.844;2023-10-13T09:39:00;10.02;;;3.50;;
20739;SDS011;10530;49.968;19.844;2023-10-13T09:44:13;8.10;;;3.70;;
20739;SDS011;10530;49.968;19.844;2023-10-13T09:49:20;9.40;;;3.42;;
20739;SDS011;10530;49.968;19.844;2023-10-13T09:55:09;7.65;;;3.65;;
20739;SDS011;10530;49.968;19.844;2023-10-13T10:00:29;10.47;;;4.33;;
20739;SDS011;10530;49.968;19.844;2023-10-13T10:05:43;7.35;;;4.00;;
20739;SDS011;10530;49.968;19.844;2023-10-13T10:17:06;9.00;;;4.38;;
20739;SDS011;10530;49.968;19.844;2023-10-13T10:22:10;9.98;;;4.43;;
20739;SDS011;10530;49.968;19.844;2023-10-13T10:27:29;8.30;;;4.43;;
20739;SDS011;10530;49.968;19.844;2023-10-13T10:32:37;9.15;;;3.67;;
20739;SDS011;10530;49.968;19.844;2023-10-13T10:37:44;7.22;;;3.97;;
20739;SDS011;10530;49.968;19.844;2023-10-13T10:42:51;9.00;;;3.78;;
20739;SDS011;10530;49.968;19.844;2023-10-13T10:47:56;9.15;;;4.38;;
20739;SDS011;10530;49.968;19.844;2023-10-13T10:53:03;7.70;;;3.30;;
20739;SDS011;10530;49.968;19.844;2023-10-13T10:58:10;6.72;;;2.83;;
20739;SDS011;10530;49.968;19.844;2023-10-13T11:03:31;7.20;;;2.97;;
20739;SDS011;10530;49.968;19.844;2023-10-13T11:08:34;9.57;;;4.10;;
20739;SDS011;10530;49.968;19.844;2023-10-13T11:13:41;6.40;;;3.08;;
20739;SDS011;10530;49.968;19.844;2023-10-13T11:19:00;7.00;;;2.80;;
20739;SDS011;10530;49.968;19.844;2023-10-13T11:24:04;5.35;;;2.90;;
20739;SDS011;10530;49.968;19.844;2023-10-13T11:29:13;5.68;;;2.75;;
20739;SDS011;10530;49.968;19.844;2023-10-13T11:34:16;6.80;;;2.97;;
20739;SDS011;10530;49.968;19.844;2023-10-13T11:39:20;6.53;;;2.90;;
20739;SDS011;10530;49.968;19.844;2023-10-13T11:44:27;6.17;;;2.70;;
20739;SDS011;10530;49.968;19.844;2023-10-13T11:49:35;5.55;;;2.90;;
20739;SDS011;10530;49.968;19.844;2023-10-13T11:54:39;6.05;;;3.00;;
20739;SDS011;10530;49.968;19.844;2023-10-13T12:05:31;6.93;;;3.50;;
20739;SDS011;10530;49.968;19.844;2023-10-13T12:10:51;8.82;;;3.30;;
20739;SDS011;10530;49.968;19.844;2023-10-13T12:16:14;5.97;;;2.80;;
20739;SDS011;10530;49.968;19.844;2023-10-13T12:21:21;6.90;;;3.20;;
20739;SDS011;10530;49.968;19.844;2023-10-13T12:26:24;6.72;;;3.00;;
20739;SDS011;10530;49.968;19.844;2023-10-13T12:31:34;5.22;;;2.58;;
20739;SDS011;10530;49.968;19.844;2023-10-13T12:41:45;7.63;;;3.20;;
20739;SDS011;10530;49.968;19.844;2023-10-13T12:47:06;8.88;;;3.50;;
20739;SDS011;10530;49.968;19.844;2023-10-13T12:52:28;8.73;;;3.10;;
20739;SDS011;10530;49.968;19.844;2023-10-13T12:57:34;7.73;;;3.27;;
20739;SDS011;10530;49.968;19.844;2023-10-13T13:02:45;7.40;;;3.42;;
20739;SDS011;10530;49.968;19.844;2023-10-13T13:07:48;5.70;;;2.93;;
20739;SDS011;10530;49.968;19.844;2023-10-13T13:12:57;5.65;;;3.03;;
20739;SDS011;10530;49.968;19.844;2023-10-13T13:17:59;6.78;;;3.10;;
20739;SDS011;10530;49.968;19.844;2023-10-13T13:23:13;8.77;;;3.37;;
20739;SDS011;10530;49.968;19.844;2023-10-13T13:28:19;6.82;;;3.20;;
20739;SDS011;10530;49.968;19.844;2023-10-13T13:33:26;7.60;;;3.27;;
20739;SDS011;10530;49.968;19.844;2023-10-13T13:38:35;5.93;;;3.45;;
20739;SDS011;10530;49.968;19.844;2023-10-13T13:43:38;7.28;;;3.40;;
20739;SDS011;10530;49.968;19.844;2023-10-13T13:48:43;5.93;;;3.03;;
20739;SDS011;10530;49.968;19.844;2023-10-13T13:53:50;7.68;;;3.28;;
20739;SDS011;10530;49.968;19.844;2023-10-13T13:58:53;6.83;;;2.73;;
20739;SDS011;10530;49.968;19.844;2023-10-13T14:03:57;7.50;;;2.80;;
20739;SDS011;10530;49.968;19.844;2023-10-13T14:09:05;7.85;;;3.10;;
20739;SDS011;10530;49.968;19.844;2023-10-13T14:14:18;5.67;;;2.40;;
20739;SDS011;10530;49.968;19.844;2023-10-13T14:19:27;5.93;;;2.97;;
20739;SDS011;10530;49.968;19.844;2023-10-13T14:24:30;8.10;;;2.70;;
20739;SDS011;10530;49.968;19.844;2023-10-13T14:29:36;5.57;;;2.45;;
20739;SDS011;10530;49.968;19.844;2023-10-13T14:34:42;7.13;;;2.70;;
20739;SDS011;10530;49.968;19.844;2023-10-13T14:39:46;6.07;;;2.80;;
20739;SDS011;10530;49.968;19.844;2023-10-13T14:44:49;8.57;;;2.80;;
20739;SDS011;10530;49.968;19.844;2023-10-13T14:49:57;9.57;;;2.80;;
20739;SDS011;10530;49.968;19.844;2023-10-13T14:55:02;7.82;;;2.70;;
20739;SDS011;10530;49.968;19.844;2023-10-13T15:00:09;7.47;;;2.97;;
20739;SDS011;10530;49.968;19.844;2023-10-13T15:05:18;9.03;;;2.93;;
20739;SDS011;10530;49.968;19.844;2023-10-13T15:10:21;7.00;;;3.03;;
20739;SDS011;10530;49.968;19.844;2023-10-13T15:15:26;7.57;;;2.70;;
20739;SDS011;10530;49.968;19.844;2023-10-13T15:20:38;7.82;;;3.03;;
20739;SDS011;10530;49.968;19.844;2023-10-13T15:25:41;7.40;;;2.72;;
20739;SDS011;10530;49.968;19.844;2023-10-13T15:30:51;6.27;;;2.93;;
20739;SDS011;10530;49.968;19.844;2023-10-13T15:35:59;7.18;;;3.15;;
20739;SDS011;10530;49.968;19.844;2023-10-13T15:41:02;6.07;;;3.20;;
20739;SDS011;10530;49.968;19.844;2023-10-13T15:46:08;6.13;;;3.00;;
20739;SDS011;10530;49.968;19.844;2023-10-13T15:51:38;6.90;;;3.10;;
20739;SDS011;10530;49.968;19.844;2023-10-13T15:56:44;9.30;;;2.87;;
20739;SDS011;10530;49.968;19.844;2023-10-13T16:01:48;7.55;;;2.80;;
20739;SDS011;10530;49.968;19.844;2023-10-13T16:06:57;8.07;;;3.77;;
20739;SDS011;10530;49.968;19.844;2023-10-13T16:11:59;8.80;;;3.70;;
20739;SDS011;10530;49.968;19.844;2023-10-13T16:17:02;7.28;;;3.25;;
20739;SDS011;10530;49.968;19.844;2023-10-13T16:22:06;7.47;;;3.33;;
20739;SDS011;10530;49.968;19.844;2023-10-13T16:27:11;7.97;;;3.60;;
20739;SDS011;10530;49.968;19.844;2023-10-13T16:32:16;9.60;;;3.30;;
20739;SDS011;10530;49.968;19.844;2023-10-13T16:37:19;6.50;;;2.92;;
20739;SDS011;10530;49.968;19.844;2023-10-13T16:42:22;8.35;;;3.30;;
20739;SDS011;10530;49.968;19.844;2023-10-13T16:47:25;9.80;;;3.10;;
20739;SDS011;10530;49.968;19.844;2023-10-13T16:52:28;13.73;;;3.83;;
20739;SDS011;10530;49.968;19.844;2023-10-13T16:57:31;10.07;;;3.67;;
20739;SDS011;10530;49.968;19.844;2023-10-13T17:02:34;8.02;;;3.90;;
20739;SDS011;10530;49.968;19.844;2023-10-13T17:07:38;9.75;;;3.95;;
20739;SDS011;10530;49.968;19.844;2023-10-13T17:12:41;8.87;;;3.97;;
20739;SDS011;10530;49.968;19.844;2023-10-13T17:17:45;8.05;;;3.72;;
20739;SDS011;10530;49.968;19.844;2023-10-13T17:22:48;8.47;;;3.87;;
20739;SDS011;10530;49.968;19.844;2023-10-13T17:27:51;8.52;;;3.30;;
20739;SDS011;10530;49.968;19.844;2023-10-13T17:32:54;10.98;;;3.40;;
20739;SDS011;10530;49.968;19.844;2023-10-13T17:37:58;9.13;;;3.37;;
20739;SDS011;10530;49.968;19.844;2023-10-13T17:43:02;8.02;;;3.35;;
20739;SDS011;10530;49.968;19.844;2023-10-13T17:48:06;8.13;;;3.07;;
20739;SDS011;10530;49.968;19.844;2023-10-13T17:53:10;7.60;;;3.13;;
20739;SDS011;10530;49.968;19.844;2023-10-13T17:58:13;7.20;;;3.47;;
20739;SDS011;10530;49.968;19.844;2023-10-13T18:03:16;8.93;;;3.27;;
20739;SDS011;10530;49.968;19.844;2023-10-13T18:08:19;8.13;;;3.08;;
20739;SDS011;10530;49.968;19.844;2023-10-13T18:13:22;8.93;;;3.33;;
20739;SDS011;10530;49.968;19.844;2023-10-13T18:18:25;6.10;;;2.60;;
20739;SDS011;10530;49.968;19.844;2023-10-13T18:23:28;8.95;;;3.13;;
20739;SDS011;10530;49.968;19.844;2023-10-13T18:28:31;9.17;;;3.60;;
20739;SDS011;10530;49.968;19.844;2023-10-13T18:33:35;12.60;;;4.13;;
20739;SDS011;10530;49.968;19.844;2023-10-13T18:38:39;9.10;;;3.10;;
20739;SDS011;10530;49.968;19.844;2023-10-13T18:43:51;9.10;;;3.40;;
20739;SDS011;10530;49.968;19.844;2023-10-13T18:48:54;8.73;;;3.78;;
20739;SDS011;10530;49.968;19.844;2023-10-13T18:53:59;9.10;;;2.70;;
20739;SDS011;10530;49.968;19.844;2023-10-13T18:59:04;7.03;;;3.25;;
20739;SDS011;10530;49.968;19.844;2023-10-13T19:04:07;8.30;;;3.17;;
20739;SDS011;10530;49.968;19.844;2023-10-13T19:09:14;7.85;;;3.47;;
20739;SDS011;10530;49.968;19.844;2023-10-13T19:14:27;10.95;;;3.28;;
20739;SDS011;10530;49.968;19.844;2023-10-13T19:19:29;9.17;;;3.23;;
20739;SDS011;10530;49.968;19.844;2023-10-13T19:24:34;7.78;;;3.38;;
20739;SDS011;10530;49.968;19.844;2023-10-13T19:29:37;9.57;;;3.40;;
20739;SDS011;10530;49.968;19.844;2023-10-13T19:34:41;10.38;;;3.45;;
20739;SDS011;10530;49.968;19.844;2023-10-13T19:39:44;10.65;;;3.55;;
20739;SDS011;10530;49.968;19.844;2023-10-13T19:44:47;12.03;;;3.47;;
20739;SDS011;10530;49.968;19.844;2023-10-13T19:49:49;10.60;;;4.03;;
20739;SDS011;10530;49.968;19.844;2023-10-13T19:54:52;12.60;;;3.40;;
20739;SDS011;10530;49.968;19.844;2023-10-13T19:59:58;11.40;;;3.30;;
20739;SDS011;10530;49.968;19.844;2023-10-13T20:05:01;10.35;;;3.38;;
20739;SDS011;10530;49.968;19.844;2023-10-13T20:10:07;7.80;;;2.97;;
20739;SDS011;10530;49.968;19.844;2023-10-13T20:15:11;10.35;;;3.47;;
20739;SDS011;10530;49.968;19.844;2023-10-13T20:20:17;9.87;;;3.40;;
20739;SDS011;10530;49.968;19.844;2023-10-13T20:25:20;7.75;;;3.28;;
20739;SDS011;10530;49.968;19.844;2023-10-13T20:30:26;10.00;;;3.55;;
20739;SDS011;10530;49.968;19.844;2023-10-13T20:35:29;9.67;;;3.10;;
20739;SDS011;10530;49.968;19.844;2023-10-13T20:40:32;9.80;;;3.35;;
20739;SDS011;10530;49.968;19.844;2023-10-13T20:45:35;12.13;;;3.53;;
20739;SDS011;10530;49.968;19.844;2023-10-13T20:50:38;11.00;;;3.50;;
20739;SDS011;10530;49.968;19.844;2023-10-13T20:55:41;9.32;;;3.92;;
20739;SDS011;10530;49.968;19.844;2023-10-13T21:00:43;7.77;;;2.67;;
20739;SDS011;10530;49.968;19.844;2023-10-13T21:05:46;13.98;;;3.95;;
20739;SDS011;10530;49.968;19.844;2023-10-13T21:10:50;8.83;;;3.37;;
20739;SDS011;10530;49.968;19.844;2023-10-13T21:15:54;8.68;;;3.03;;
20739;SDS011;10530;49.968;19.844;2023-10-13T21:26:09;10.47;;;3.10;;
20739;SDS011;10530;49.968;19.844;2023-10-13T21:31:23;11.63;;;3.40;;
20739;SDS011;10530;49.968;19.844;2023-10-13T21:36:26;11.43;;;3.10;;
20739;SDS011;10530;49.968;19.844;2023-10-13T21:41:29;11.35;;;3.20;;
20739;SDS011;10530;49.968;19.844;2023-10-13T21:46:32;11.45;;;3.67;;
20739;SDS011;10530;49.968;19.844;2023-10-13T21:51:37;8.47;;;3.17;;
20739;SDS011;10530;49.968;19.844;2023-10-13T21:56:40;8.30;;;3.03;;
20739;SDS011;10530;49.968;19.844;2023-10-13T22:01:43;12.17;;;3.10;;
20739;SDS011;10530;49.968;19.844;2023-10-13T22:06:47;8.65;;;3.00;;
20739;SDS011;10530;49.968;19.844;2023-10-13T22:11:49;8.82;;;3.50;;
20739;SDS011;10530;49.968;19.844;2023-10-13T22:16:52;10.30;;;3.20;;
20739;SDS011;10530;49.968;19.844;2023-10-13T22:21:55;10.48;;;3.28;;
20739;SDS011;10530;49.968;19.844;2023-10-13T22:26:58;11.13;;;3.33;;
20739;SDS011;10530;49.968;19.844;2023-10-13T22:32:01;12.23;;;3.47;;
20739;SDS011;10530;49.968;19.844;2023-10-13T22:37:04;9.45;;;3.22;;
20739;SDS011;10530;49.968;19.844;2023-10-13T22:42:07;9.93;;;3.30;;
20739;SDS011;10530;49.968;19.844;2023-10-13T22:47:10;8.18;;;2.83;;
20739;SDS011;10530;49.968;19.844;2023-10-13T22:52:13;9.13;;;3.10;;
20739;SDS011;10530;49.968;19.844;2023-10-13T22:57:16;9.60;;;3.25;;
20739;SDS011;10530;49.968;19.844;2023-10-13T23:02:19;8.07;;;3.47;;
20739;SDS011;10530;49.968;19.844;2023-10-13T23:07:22;7.97;;;3.33;;
20739;SDS011;10530;49.968;19.844;2023-10-13T23:12:25;8.95;;;3.58;;
20739;SDS011;10530;49.968;19.844;2023-10-13T23:17:32;7.00;;;3.10;;
20739;SDS011;10530;49.968;19.844;2023-10-13T23:22:35;9.27;;;3.45;;
20739;SDS011;10530;49.968;19.844;2023-10-13T23:27:38;8.32;;;3.08;;
20739;SDS011;10530;49.968;19.844;2023-10-13T23:32:41;9.67;;;3.53;;
20739;SDS011;10530;49.968;19.844;2023-10-13T23:37:44;10.90;;;3.22;;
20739;SDS011;10530;49.968;19.844;2023-10-13T23:42:47;11.10;;;3.10;;
20739;SDS011;10530;49.968;19.844;2023-10-13T23:47:58;7.28;;;3.08;;
20739;SDS011;10530;49.968;19.844;2023-10-13T23:53:01;8.77;;;3.53;;
20739;SDS011;10530;49.968;19.844;2023-10-13T23:58:05;7.30;;;3.20;;
